sensor_id;sensor_type;location;lat;lon;timestamp;temperature;humidity
1994;DHT22;998;49.906;10.908;2022-09-20T00:01:24;11.30;99.90
1994;DHT22;998;49.906;10.908;2022-09-20T00:03:54;11.30;99.90
1994;DHT22;998;49.906;10.908;2022-09-20T00:06:23;11.30;99.90
1994;DHT22;998;49.906;10.908;2022-09-20T00:08:50;11.20;99.90
1994;DHT22;998;49.906;10.908;2022-09-20T00:11:19;11.20;99.90
1994;DHT22;998;49.906;10.908;2022-09-20T00:13:48;11.20;99.90
1994;DHT22;998;49.906;10.908;2022-09-20T00:16:18;11.20;99.90
1994;DHT22;998;49.906;10.908;2022-09-20T00:18:47;11.10;99.90
1994;DHT22;998;49.906;10.908;2022-09-20T00:21:17;11.10;99.90
1994;DHT22;998;49.906;10.908;2022-09-20T00:23:44;11.10;99.90
1994;DHT22;998;49.906;10.908;2022-09-20T00:26:11;11.10;99.90
1994;DHT22;998;49.906;10.908;2022-09-20T00:28:38;11.10;99.90
1994;DHT22;998;49.906;10.908;2022-09-20T00:31:06;11.00;99.90
1994;DHT22;998;49.906;10.908;2022-09-20T00:33:33;10.90;99.90
1994;DHT22;998;49.906;10.908;2022-09-20T00:36:19;10.90;99.90
1994;DHT22;998;49.906;10.908;2022-09-20T00:38:46;10.90;99.90
1994;DHT22;998;49.906;10.908;2022-09-20T00:41:13;10.90;99.90
1994;DHT22;998;49.906;10.908;2022-09-20T00:43:42;11.00;99.90
1994;DHT22;998;49.906;10.908;2022-09-20T00:46:19;11.00;99.90
1994;DHT22;998;49.906;10.908;2022-09-20T00:48:48;11.00;99.90
1994;DHT22;998;49.906;10.908;2022-09-20T00:51:21;11.00;99.90
1994;DHT22;998;49.906;10.908;2022-09-20T00:53:50;11.10;99.90
1994;DHT22;998;49.906;10.908;2022-09-20T00:56:21;11.00;99.90
1994;DHT22;998;49.906;10.908;2022-09-20T00:58:51;11.00;99.90
1994;DHT22;998;49.906;10.908;2022-09-20T01:01:20;11.00;99.90
1994;DHT22;998;49.906;10.908;2022-09-20T01:03:47;11.10;99.90
1994;DHT22;998;49.906;10.908;2022-09-20T01:06:16;11.10;99.90
1994;DHT22;998;49.906;10.908;2022-09-20T01:08:46;11.10;99.90
1994;DHT22;998;49.906;10.908;2022-09-20T01:11:15;11.00;99.90
1994;DHT22;998;49.906;10.908;2022-09-20T01:13:42;11.00;99.90
1994;DHT22;998;49.906;10.908;2022-09-20T01:16:09;11.00;99.90
1994;DHT22;998;49.906;10.908;2022-09-20T01:18:37;11.00;99.90
1994;DHT22;998;49.906;10.908;2022-09-20T01:21:05;11.10;99.90
1994;DHT22;998;49.906;10.908;2022-09-20T01:23:42;11.10;99.90
1994;DHT22;998;49.906;10.908;2022-09-20T01:26:36;11.00;99.90
1994;DHT22;998;49.906;10.908;2022-09-20T01:29:16;11.10;99.90
1994;DHT22;998;49.906;10.908;2022-09-20T01:31:46;11.10;99.90
1994;DHT22;998;49.906;10.908;2022-09-20T01:34:18;11.10;99.90
1994;DHT22;998;49.906;10.908;2022-09-20T01:36:50;11.20;99.90
1994;DHT22;998;49.906;10.908;2022-09-20T01:39:28;11.10;99.90
1994;DHT22;998;49.906;10.908;2022-09-20T01:42:04;11.10;99.90
1994;DHT22;998;49.906;10.908;2022-09-20T01:44:37;11.10;99.90
1994;DHT22;998;49.906;10.908;2022-09-20T01:47:10;11.10;99.90
1994;DHT22;998;49.906;10.908;2022-09-20T01:49:50;11.10;99.90
1994;DHT22;998;49.906;10.908;2022-09-20T01:59:01;11.10;99.90
1994;DHT22;998;49.906;10.908;2022-09-20T02:02:06;11.10;99.90
1994;DHT22;998;49.906;10.908;2022-09-20T02:04:52;11.10;99.90
1994;DHT22;998;49.906;10.908;2022-09-20T02:11:10;11.20;99.90
1994;DHT22;998;49.906;10.908;2022-09-20T02:16:45;11.20;99.90
1994;DHT22;998;49.906;10.908;2022-09-20T02:19:30;11.10;99.90
1994;DHT22;998;49.906;10.908;2022-09-20T02:22:09;11.10;99.90
1994;DHT22;998;49.906;10.908;2022-09-20T02:24:47;11.10;99.90
1994;DHT22;998;49.906;10.908;2022-09-20T02:27:22;11.10;99.90
1994;DHT22;998;49.906;10.908;2022-09-20T02:30:03;11.10;99.90
1994;DHT22;998;49.906;10.908;2022-09-20T02:32:55;11.10;99.90
1994;DHT22;998;49.906;10.908;2022-09-20T02:35:40;11.20;99.90
1994;DHT22;998;49.906;10.908;2022-09-20T02:38:30;11.20;99.90
1994;DHT22;998;49.906;10.908;2022-09-20T02:41:25;11.20;99.90
1994;DHT22;998;49.906;10.908;2022-09-20T02:43:59;11.20;99.90
1994;DHT22;998;49.906;10.908;2022-09-20T02:46:30;11.10;99.90
1994;DHT22;998;49.906;10.908;2022-09-20T02:49:08;11.10;99.90
1994;DHT22;998;49.906;10.908;2022-09-20T02:51:40;11.10;99.90
1994;DHT22;998;49.906;10.908;2022-09-20T02:54:16;11.10;99.90
1994;DHT22;998;49.906;10.908;2022-09-20T02:56:51;11.10;99.90
1994;DHT22;998;49.906;10.908;2022-09-20T02:59:26;11.20;99.90
1994;DHT22;998;49.906;10.908;2022-09-20T03:02:06;11.20;99.90
1994;DHT22;998;49.906;10.908;2022-09-20T03:04:43;11.10;99.90
1994;DHT22;998;49.906;10.908;2022-09-20T03:07:31;11.10;99.90
1994;DHT22;998;49.906;10.908;2022-09-20T03:14:28;11.00;99.90
1994;DHT22;998;49.906;10.908;2022-09-20T03:27:53;11.00;99.90
1994;DHT22;998;49.906;10.908;2022-09-20T03:35:37;11.00;99.90
1994;DHT22;998;49.906;10.908;2022-09-20T04:10:08;10.70;99.90
1994;DHT22;998;49.906;10.908;2022-09-20T04:16:31;10.70;99.90
1994;DHT22;998;49.906;10.908;2022-09-20T04:19:29;10.60;99.90
1994;DHT22;998;49.906;10.908;2022-09-20T04:22:12;10.60;99.90
1994;DHT22;998;49.906;10.908;2022-09-20T04:24:57;10.50;99.90
1994;DHT22;998;49.906;10.908;2022-09-20T04:28:03;10.60;99.90
1994;DHT22;998;49.906;10.908;2022-09-20T04:30:42;10.60;99.90
1994;DHT22;998;49.906;10.908;2022-09-20T04:33:20;10.60;99.90
1994;DHT22;998;49.906;10.908;2022-09-20T04:36:52;10.40;99.90
1994;DHT22;998;49.906;10.908;2022-09-20T04:39:46;10.50;99.90
1994;DHT22;998;49.906;10.908;2022-09-20T04:53:26;10.40;99.90
1994;DHT22;998;49.906;10.908;2022-09-20T04:56:26;10.30;99.90
1994;DHT22;998;49.906;10.908;2022-09-20T05:27:53;10.30;99.90
1994;DHT22;998;49.906;10.908;2022-09-20T05:31:05;10.30;99.90
1994;DHT22;998;49.906;10.908;2022-09-20T05:33:55;10.20;99.90
1994;DHT22;998;49.906;10.908;2022-09-20T05:40:37;10.20;99.90
1994;DHT22;998;49.906;10.908;2022-09-20T05:43:56;10.20;99.90
1994;DHT22;998;49.906;10.908;2022-09-20T05:46:42;10.30;99.90
1994;DHT22;998;49.906;10.908;2022-09-20T05:49:31;10.20;99.90
1994;DHT22;998;49.906;10.908;2022-09-20T05:52:28;10.20;99.90
1994;DHT22;998;49.906;10.908;2022-09-20T05:58:31;10.20;99.90
1994;DHT22;998;49.906;10.908;2022-09-20T06:01:09;10.20;99.90
1994;DHT22;998;49.906;10.908;2022-09-20T06:03:49;10.20;99.90
1994;DHT22;998;49.906;10.908;2022-09-20T06:07:02;10.30;99.90
1994;DHT22;998;49.906;10.908;2022-09-20T06:43:22;10.50;99.90
1994;DHT22;998;49.906;10.908;2022-09-20T06:45:08;10.60;99.90
1994;DHT22;998;49.906;10.908;2022-09-20T06:47:35;10.60;99.90
1994;DHT22;998;49.906;10.908;2022-09-20T06:50:16;10.70;99.90
1994;DHT22;998;49.906;10.908;2022-09-20T06:52:52;10.60;99.90
1994;DHT22;998;49.906;10.908;2022-09-20T06:55:34;10.60;99.90
1994;DHT22;998;49.906;10.908;2022-09-20T06:58:04;10.70;99.90
1994;DHT22;998;49.906;10.908;2022-09-20T07:00:32;10.70;99.90
1994;DHT22;998;49.906;10.908;2022-09-20T07:02:59;10.70;99.90
1994;DHT22;998;49.906;10.908;2022-09-20T07:05:30;10.80;99.90
1994;DHT22;998;49.906;10.908;2022-09-20T07:07:58;10.80;99.90
1994;DHT22;998;49.906;10.908;2022-09-20T07:10:27;10.80;99.90
1994;DHT22;998;49.906;10.908;2022-09-20T07:12:58;10.80;99.90
1994;DHT22;998;49.906;10.908;2022-09-20T07:15:31;10.80;99.90
1994;DHT22;998;49.906;10.908;2022-09-20T07:18:11;10.90;99.90
1994;DHT22;998;49.906;10.908;2022-09-20T07:20:41;10.90;99.90
1994;DHT22;998;49.906;10.908;2022-09-20T07:23:11;10.90;99.90
1994;DHT22;998;49.906;10.908;2022-09-20T07:29:30;10.90;99.90
1994;DHT22;998;49.906;10.908;2022-09-20T07:32:50;10.90;99.90
1994;DHT22;998;49.906;10.908;2022-09-20T07:36:05;11.00;99.90
1994;DHT22;998;49.906;10.908;2022-09-20T07:49:21;11.10;99.90
1994;DHT22;998;49.906;10.908;2022-09-20T07:51:55;11.10;99.90
1994;DHT22;998;49.906;10.908;2022-09-20T08:01:53;11.20;99.90
1994;DHT22;998;49.906;10.908;2022-09-20T08:04:26;11.20;99.90
1994;DHT22;998;49.906;10.908;2022-09-20T08:06:53;11.30;99.90
1994;DHT22;998;49.906;10.908;2022-09-20T08:09:39;11.30;99.90
1994;DHT22;998;49.906;10.908;2022-09-20T08:12:10;11.30;99.90
1994;DHT22;998;49.906;10.908;2022-09-20T08:14:44;11.30;99.90
1994;DHT22;998;49.906;10.908;2022-09-20T08:17:17;11.30;99.90
1994;DHT22;998;49.906;10.908;2022-09-20T08:19:46;11.30;99.90
1994;DHT22;998;49.906;10.908;2022-09-20T08:22:13;11.40;99.90
1994;DHT22;998;49.906;10.908;2022-09-20T08:24:40;11.30;99.90
1994;DHT22;998;49.906;10.908;2022-09-20T08:27:08;11.20;99.90
1994;DHT22;998;49.906;10.908;2022-09-20T08:29:37;11.10;99.90
1994;DHT22;998;49.906;10.908;2022-09-20T08:32:08;11.10;99.90
1994;DHT22;998;49.906;10.908;2022-09-20T08:37:58;11.20;99.90
1994;DHT22;998;49.906;10.908;2022-09-20T08:40:29;11.20;99.90
1994;DHT22;998;49.906;10.908;2022-09-20T08:42:59;11.30;99.90
1994;DHT22;998;49.906;10.908;2022-09-20T08:48:57;11.30;99.90
1994;DHT22;998;49.906;10.908;2022-09-20T08:52:33;11.30;99.90
1994;DHT22;998;49.906;10.908;2022-09-20T08:58:07;11.30;99.90
1994;DHT22;998;49.906;10.908;2022-09-20T09:01:09;11.30;99.90
1994;DHT22;998;49.906;10.908;2022-09-20T09:03:37;11.30;99.90
1994;DHT22;998;49.906;10.908;2022-09-20T09:06:13;11.30;99.90
1994;DHT22;998;49.906;10.908;2022-09-20T10:04:27;12.00;99.90
1994;DHT22;998;49.906;10.908;2022-09-20T10:07:57;12.00;99.90
1994;DHT22;998;49.906;10.908;2022-09-20T10:25:24;12.10;99.90
1994;DHT22;998;49.906;10.908;2022-09-20T10:28:40;12.10;99.90
1994;DHT22;998;49.906;10.908;2022-09-20T10:38:12;12.40;99.90
1994;DHT22;998;49.906;10.908;2022-09-20T10:41:25;12.50;99.90
1994;DHT22;998;49.906;10.908;2022-09-20T10:44:12;12.50;99.90
1994;DHT22;998;49.906;10.908;2022-09-20T10:46:50;12.60;99.90
1994;DHT22;998;49.906;10.908;2022-09-20T10:49:25;12.50;99.90
1994;DHT22;998;49.906;10.908;2022-09-20T10:55:34;12.50;99.90
1994;DHT22;998;49.906;10.908;2022-09-20T11:00:07;12.50;99.90
1994;DHT22;998;49.906;10.908;2022-09-20T11:01:57;12.60;99.90
1994;DHT22;998;49.906;10.908;2022-09-20T11:11:36;12.90;99.90
1994;DHT22;998;49.906;10.908;2022-09-20T11:14:09;12.90;99.90
1994;DHT22;998;49.906;10.908;2022-09-20T11:24:24;13.90;99.90
1994;DHT22;998;49.906;10.908;2022-09-20T11:26:56;14.10;99.90
1994;DHT22;998;49.906;10.908;2022-09-20T11:30:02;13.70;99.90
1994;DHT22;998;49.906;10.908;2022-09-20T14:14:44;18.20;99.90
1994;DHT22;998;49.906;10.908;2022-09-20T14:18:22;18.00;99.90
1994;DHT22;998;49.906;10.908;2022-09-20T14:24:53;17.00;99.90
1994;DHT22;998;49.906;10.908;2022-09-20T15:08:36;15.20;99.90
1994;DHT22;998;49.906;10.908;2022-09-20T15:11:03;15.10;99.90
1994;DHT22;998;49.906;10.908;2022-09-20T15:13:31;15.00;99.90
1994;DHT22;998;49.906;10.908;2022-09-20T15:15:58;14.90;99.90
1994;DHT22;998;49.906;10.908;2022-09-20T15:18:26;14.80;99.90
1994;DHT22;998;49.906;10.908;2022-09-20T15:20:54;14.70;99.90
1994;DHT22;998;49.906;10.908;2022-09-20T15:23:21;14.60;99.90
1994;DHT22;998;49.906;10.908;2022-09-20T15:25:50;14.40;99.90
1994;DHT22;998;49.906;10.908;2022-09-20T15:28:17;14.30;99.90
1994;DHT22;998;49.906;10.908;2022-09-20T15:30:46;14.20;99.90
1994;DHT22;998;49.906;10.908;2022-09-20T15:33:14;14.20;99.90
1994;DHT22;998;49.906;10.908;2022-09-20T15:35:41;14.30;99.90
1994;DHT22;998;49.906;10.908;2022-09-20T15:38:08;14.30;99.90
1994;DHT22;998;49.906;10.908;2022-09-20T15:40:38;14.30;99.90
1994;DHT22;998;49.906;10.908;2022-09-20T15:43:06;14.40;99.90
1994;DHT22;998;49.906;10.908;2022-09-20T15:45:35;14.40;99.90
1994;DHT22;998;49.906;10.908;2022-09-20T15:48:13;14.40;99.90
1994;DHT22;998;49.906;10.908;2022-09-20T15:50:40;14.40;99.90
1994;DHT22;998;49.906;10.908;2022-09-20T15:53:08;14.60;99.90
1994;DHT22;998;49.906;10.908;2022-09-20T15:55:36;14.60;99.90
1994;DHT22;998;49.906;10.908;2022-09-20T15:58:03;14.70;99.90
1994;DHT22;998;49.906;10.908;2022-09-20T16:00:31;14.80;99.90
1994;DHT22;998;49.906;10.908;2022-09-20T16:02:58;14.80;99.90
1994;DHT22;998;49.906;10.908;2022-09-20T16:05:25;14.80;99.90
1994;DHT22;998;49.906;10.908;2022-09-20T16:07:51;15.00;99.90
1994;DHT22;998;49.906;10.908;2022-09-20T16:10:18;15.00;99.90
1994;DHT22;998;49.906;10.908;2022-09-20T16:12:45;14.90;99.90
1994;DHT22;998;49.906;10.908;2022-09-20T16:15:12;15.00;99.90
1994;DHT22;998;49.906;10.908;2022-09-20T16:17:40;15.00;99.90
1994;DHT22;998;49.906;10.908;2022-09-20T16:20:25;14.90;99.90
1994;DHT22;998;49.906;10.908;2022-09-20T16:22:51;14.90;99.90
1994;DHT22;998;49.906;10.908;2022-09-20T16:25:18;14.90;99.90
1994;DHT22;998;49.906;10.908;2022-09-20T16:27:45;14.80;99.90
1994;DHT22;998;49.906;10.908;2022-09-20T16:30:12;14.80;99.90
1994;DHT22;998;49.906;10.908;2022-09-20T16:32:41;14.80;99.90
1994;DHT22;998;49.906;10.908;2022-09-20T16:35:08;14.80;99.90
1994;DHT22;998;49.906;10.908;2022-09-20T16:37:35;14.60;99.90
1994;DHT22;998;49.906;10.908;2022-09-20T16:40:07;14.60;99.90
1994;DHT22;998;49.906;10.908;2022-09-20T16:42:35;14.50;99.90
1994;DHT22;998;49.906;10.908;2022-09-20T16:45:02;14.30;99.90
1994;DHT22;998;49.906;10.908;2022-09-20T16:47:29;14.30;99.90
1994;DHT22;998;49.906;10.908;2022-09-20T16:49:57;14.30;99.90
1994;DHT22;998;49.906;10.908;2022-09-20T16:52:24;14.40;99.90
1994;DHT22;998;49.906;10.908;2022-09-20T16:54:51;14.40;99.90
1994;DHT22;998;49.906;10.908;2022-09-20T16:57:18;14.40;99.90
1994;DHT22;998;49.906;10.908;2022-09-20T16:59:46;14.30;99.90
1994;DHT22;998;49.906;10.908;2022-09-20T17:02:19;14.30;99.90
1994;DHT22;998;49.906;10.908;2022-09-20T17:04:49;14.20;99.90
1994;DHT22;998;49.906;10.908;2022-09-20T17:07:17;14.30;99.90
1994;DHT22;998;49.906;10.908;2022-09-20T17:09:52;14.20;99.90
1994;DHT22;998;49.906;10.908;2022-09-20T17:12:25;14.10;99.90
1994;DHT22;998;49.906;10.908;2022-09-20T17:14:56;14.10;99.90
1994;DHT22;998;49.906;10.908;2022-09-20T17:17:23;13.90;99.90
1994;DHT22;998;49.906;10.908;2022-09-20T17:19:50;13.90;99.90
1994;DHT22;998;49.906;10.908;2022-09-20T17:22:18;13.90;99.90
1994;DHT22;998;49.906;10.908;2022-09-20T17:24:48;13.90;99.90
1994;DHT22;998;49.906;10.908;2022-09-20T17:27:18;13.90;99.90
1994;DHT22;998;49.906;10.908;2022-09-20T17:29:45;13.80;99.90
1994;DHT22;998;49.906;10.908;2022-09-20T17:32:18;13.90;99.90
1994;DHT22;998;49.906;10.908;2022-09-20T17:34:45;13.80;99.90
1994;DHT22;998;49.906;10.908;2022-09-20T17:37:14;13.80;99.90
1994;DHT22;998;49.906;10.908;2022-09-20T17:39:52;13.70;99.90
1994;DHT22;998;49.906;10.908;2022-09-20T17:42:19;13.70;99.90
1994;DHT22;998;49.906;10.908;2022-09-20T17:44:55;13.70;99.90
1994;DHT22;998;49.906;10.908;2022-09-20T17:47:24;13.70;99.90
1994;DHT22;998;49.906;10.908;2022-09-20T17:49:53;13.70;99.90
1994;DHT22;998;49.906;10.908;2022-09-20T17:52:26;13.60;99.90
1994;DHT22;998;49.906;10.908;2022-09-20T17:54:54;13.50;99.90
1994;DHT22;998;49.906;10.908;2022-09-20T17:57:28;13.50;99.90
1994;DHT22;998;49.906;10.908;2022-09-20T18:00:01;13.40;99.90
1994;DHT22;998;49.906;10.908;2022-09-20T18:02:36;13.20;99.90
1994;DHT22;998;49.906;10.908;2022-09-20T18:05:20;13.30;99.90
1994;DHT22;998;49.906;10.908;2022-09-20T18:08:03;13.40;99.90
1994;DHT22;998;49.906;10.908;2022-09-20T18:10:55;13.40;99.90
1994;DHT22;998;49.906;10.908;2022-09-20T18:13:26;13.40;99.90
1994;DHT22;998;49.906;10.908;2022-09-20T18:16:06;13.10;99.90
1994;DHT22;998;49.906;10.908;2022-09-20T18:18:37;13.20;99.90
1994;DHT22;998;49.906;10.908;2022-09-20T18:22:06;13.20;99.90
1994;DHT22;998;49.906;10.908;2022-09-20T18:25:03;13.20;99.90
1994;DHT22;998;49.906;10.908;2022-09-20T18:27:48;13.30;99.90
1994;DHT22;998;49.906;10.908;2022-09-20T18:30:33;13.20;99.90
1994;DHT22;998;49.906;10.908;2022-09-20T18:33:15;13.10;99.90
1994;DHT22;998;49.906;10.908;2022-09-20T18:35:59;13.10;99.90
1994;DHT22;998;49.906;10.908;2022-09-20T18:38:43;13.10;99.90
1994;DHT22;998;49.906;10.908;2022-09-20T18:41:14;13.20;99.90
1994;DHT22;998;49.906;10.908;2022-09-20T18:43:45;13.20;99.90
1994;DHT22;998;49.906;10.908;2022-09-20T18:46:15;13.10;99.90
1994;DHT22;998;49.906;10.908;2022-09-20T18:48:57;13.10;99.90
1994;DHT22;998;49.906;10.908;2022-09-20T18:51:28;13.10;99.90
1994;DHT22;998;49.906;10.908;2022-09-20T18:54:01;13.10;99.90
1994;DHT22;998;49.906;10.908;2022-09-20T18:56:33;13.00;99.90
1994;DHT22;998;49.906;10.908;2022-09-20T18:59:13;13.00;99.90
1994;DHT22;998;49.906;10.908;2022-09-20T19:05:21;12.90;99.90
1994;DHT22;998;49.906;10.908;2022-09-20T19:08:05;12.90;99.90
1994;DHT22;998;49.906;10.908;2022-09-20T19:10:40;12.90;99.90
1994;DHT22;998;49.906;10.908;2022-09-20T19:13:28;12.80;99.90
1994;DHT22;998;49.906;10.908;2022-09-20T19:16:18;12.80;99.90
1994;DHT22;998;49.906;10.908;2022-09-20T19:22:02;12.70;99.90
1994;DHT22;998;49.906;10.908;2022-09-20T19:24:39;12.60;99.90
1994;DHT22;998;49.906;10.908;2022-09-20T19:27:10;12.60;99.90
1994;DHT22;998;49.906;10.908;2022-09-20T19:29:39;12.60;99.90
1994;DHT22;998;49.906;10.908;2022-09-20T19:32:14;12.40;99.90
1994;DHT22;998;49.906;10.908;2022-09-20T19:34:44;12.40;99.90
1994;DHT22;998;49.906;10.908;2022-09-20T19:37:21;12.30;99.90
1994;DHT22;998;49.906;10.908;2022-09-20T19:39:59;12.20;99.90
1994;DHT22;998;49.906;10.908;2022-09-20T19:42:38;12.20;99.90
1994;DHT22;998;49.906;10.908;2022-09-20T19:45:12;12.10;99.90
1994;DHT22;998;49.906;10.908;2022-09-20T19:47:51;12.10;99.90
1994;DHT22;998;49.906;10.908;2022-09-20T19:50:28;12.00;99.90
1994;DHT22;998;49.906;10.908;2022-09-20T19:53:03;12.00;99.90
1994;DHT22;998;49.906;10.908;2022-09-20T19:55:34;12.00;99.90
1994;DHT22;998;49.906;10.908;2022-09-20T19:58:08;12.10;99.90
1994;DHT22;998;49.906;10.908;2022-09-20T20:00:38;12.00;99.90
1994;DHT22;998;49.906;10.908;2022-09-20T20:03:18;11.90;99.90
1994;DHT22;998;49.906;10.908;2022-09-20T20:05:55;12.00;99.90
1994;DHT22;998;49.906;10.908;2022-09-20T20:08:32;11.90;99.90
1994;DHT22;998;49.906;10.908;2022-09-20T20:11:27;11.90;99.90
1994;DHT22;998;49.906;10.908;2022-09-20T20:14:01;12.10;99.90
1994;DHT22;998;49.906;10.908;2022-09-20T20:16:42;12.00;99.90
1994;DHT22;998;49.906;10.908;2022-09-20T20:22:14;11.90;99.90
1994;DHT22;998;49.906;10.908;2022-09-20T20:24:49;11.80;99.90
1994;DHT22;998;49.906;10.908;2022-09-20T20:27:17;11.70;99.90
1994;DHT22;998;49.906;10.908;2022-09-20T20:29:44;11.80;99.90
1994;DHT22;998;49.906;10.908;2022-09-20T20:32:11;11.80;99.90
1994;DHT22;998;49.906;10.908;2022-09-20T20:34:45;11.70;99.90
1994;DHT22;998;49.906;10.908;2022-09-20T20:37:12;11.50;99.90
1994;DHT22;998;49.906;10.908;2022-09-20T20:39:39;11.70;99.90
1994;DHT22;998;49.906;10.908;2022-09-20T20:42:06;11.70;99.90
1994;DHT22;998;49.906;10.908;2022-09-20T20:44:37;11.70;99.90
1994;DHT22;998;49.906;10.908;2022-09-20T20:47:05;11.70;99.90
1994;DHT22;998;49.906;10.908;2022-09-20T20:49:33;11.80;99.90
1994;DHT22;998;49.906;10.908;2022-09-20T20:52:02;11.80;99.90
1994;DHT22;998;49.906;10.908;2022-09-20T20:54:30;11.50;99.90
1994;DHT22;998;49.906;10.908;2022-09-20T20:56:57;11.60;99.90
1994;DHT22;998;49.906;10.908;2022-09-20T20:59:25;11.60;99.90
1994;DHT22;998;49.906;10.908;2022-09-20T21:01:52;11.60;99.90
1994;DHT22;998;49.906;10.908;2022-09-20T21:04:19;11.60;99.90
1994;DHT22;998;49.906;10.908;2022-09-20T21:06:46;11.50;99.90
1994;DHT22;998;49.906;10.908;2022-09-20T21:09:14;11.40;99.90
1994;DHT22;998;49.906;10.908;2022-09-20T21:11:41;11.40;99.90
1994;DHT22;998;49.906;10.908;2022-09-20T21:14:09;11.30;99.90
1994;DHT22;998;49.906;10.908;2022-09-20T21:16:38;11.10;99.90
1994;DHT22;998;49.906;10.908;2022-09-20T21:19:07;11.10;99.90
1994;DHT22;998;49.906;10.908;2022-09-20T21:21:36;11.30;99.90
1994;DHT22;998;49.906;10.908;2022-09-20T21:24:06;11.10;99.90
1994;DHT22;998;49.906;10.908;2022-09-20T21:26:36;11.10;99.90
1994;DHT22;998;49.906;10.908;2022-09-20T21:29:04;11.00;99.90
1994;DHT22;998;49.906;10.908;2022-09-20T21:31:33;11.00;99.90
1994;DHT22;998;49.906;10.908;2022-09-20T21:34:00;11.00;99.90
1994;DHT22;998;49.906;10.908;2022-09-20T21:36:30;10.90;99.90
1994;DHT22;998;49.906;10.908;2022-09-20T21:38:58;10.90;99.90
1994;DHT22;998;49.906;10.908;2022-09-20T21:41:29;10.80;99.90
1994;DHT22;998;49.906;10.908;2022-09-20T21:43:59;10.90;99.90
1994;DHT22;998;49.906;10.908;2022-09-20T21:46:28;10.90;99.90
1994;DHT22;998;49.906;10.908;2022-09-20T21:48:56;10.90;99.90
1994;DHT22;998;49.906;10.908;2022-09-20T21:51:25;10.90;99.90
1994;DHT22;998;49.906;10.908;2022-09-20T21:53:55;11.00;99.90
1994;DHT22;998;49.906;10.908;2022-09-20T21:56:23;10.90;99.90
1994;DHT22;998;49.906;10.908;2022-09-20T21:58:52;10.80;99.90
1994;DHT22;998;49.906;10.908;2022-09-20T22:01:21;10.90;99.90
1994;DHT22;998;49.906;10.908;2022-09-20T22:03:51;11.00;99.90
1994;DHT22;998;49.906;10.908;2022-09-20T22:06:20;10.90;99.90
1994;DHT22;998;49.906;10.908;2022-09-20T22:08:49;10.90;99.90
1994;DHT22;998;49.906;10.908;2022-09-20T22:11:17;10.90;99.90
1994;DHT22;998;49.906;10.908;2022-09-20T22:13:46;10.80;99.90
1994;DHT22;998;49.906;10.908;2022-09-20T22:16:14;10.90;99.90
1994;DHT22;998;49.906;10.908;2022-09-20T22:18:43;10.80;99.90
1994;DHT22;998;49.906;10.908;2022-09-20T22:21:12;10.70;99.90
1994;DHT22;998;49.906;10.908;2022-09-20T22:23:40;10.90;99.90
1994;DHT22;998;49.906;10.908;2022-09-20T22:26:09;10.90;99.90
1994;DHT22;998;49.906;10.908;2022-09-20T22:28:36;10.80;99.90
1994;DHT22;998;49.906;10.908;2022-09-20T22:31:07;10.80;99.90
1994;DHT22;998;49.906;10.908;2022-09-20T22:33:38;10.80;99.90
1994;DHT22;998;49.906;10.908;2022-09-20T22:36:07;10.90;99.90
1994;DHT22;998;49.906;10.908;2022-09-20T22:38:34;10.90;99.90
1994;DHT22;998;49.906;10.908;2022-09-20T22:41:01;10.70;99.90
1994;DHT22;998;49.906;10.908;2022-09-20T22:43:31;10.80;99.90
1994;DHT22;998;49.906;10.908;2022-09-20T22:46:01;10.70;99.90
1994;DHT22;998;49.906;10.908;2022-09-20T22:48:29;10.70;99.90
1994;DHT22;998;49.906;10.908;2022-09-20T22:50:58;10.70;99.90
1994;DHT22;998;49.906;10.908;2022-09-20T22:53:28;10.70;99.90
1994;DHT22;998;49.906;10.908;2022-09-20T22:56:01;10.70;99.90
1994;DHT22;998;49.906;10.908;2022-09-20T22:58:29;10.70;99.90
1994;DHT22;998;49.906;10.908;2022-09-20T23:01:03;10.50;99.90
1994;DHT22;998;49.906;10.908;2022-09-20T23:03:30;10.50;99.90
1994;DHT22;998;49.906;10.908;2022-09-20T23:05:56;10.60;99.90
1994;DHT22;998;49.906;10.908;2022-09-20T23:08:23;10.70;99.90
1994;DHT22;998;49.906;10.908;2022-09-20T23:10:58;10.70;99.90
1994;DHT22;998;49.906;10.908;2022-09-20T23:13:25;10.70;99.90
1994;DHT22;998;49.906;10.908;2022-09-20T23:15:52;10.70;99.90
1994;DHT22;998;49.906;10.908;2022-09-20T23:18:19;10.70;99.90
1994;DHT22;998;49.906;10.908;2022-09-20T23:20:45;10.70;99.90
1994;DHT22;998;49.906;10.908;2022-09-20T23:23:12;10.70;99.90
1994;DHT22;998;49.906;10.908;2022-09-20T23:25:48;10.70;99.90
1994;DHT22;998;49.906;10.908;2022-09-20T23:28:16;10.80;99.90
1994;DHT22;998;49.906;10.908;2022-09-20T23:30:43;10.70;99.90
1994;DHT22;998;49.906;10.908;2022-09-20T23:33:09;10.50;99.90
1994;DHT22;998;49.906;10.908;2022-09-20T23:35:42;10.40;99.90
1994;DHT22;998;49.906;10.908;2022-09-20T23:38:09;10.40;99.90
1994;DHT22;998;49.906;10.908;2022-09-20T23:40:35;10.30;99.90
1994;DHT22;998;49.906;10.908;2022-09-20T23:43:02;10.30;99.90
1994;DHT22;998;49.906;10.908;2022-09-20T23:45:30;10.20;99.90
1994;DHT22;998;49.906;10.908;2022-09-20T23:47:57;10.10;99.90
1994;DHT22;998;49.906;10.908;2022-09-20T23:50:24;10.00;99.90
1994;DHT22;998;49.906;10.908;2022-09-20T23:52:51;9.90;99.90
1994;DHT22;998;49.906;10.908;2022-09-20T23:55:18;9.90;99.90
1994;DHT22;998;49.906;10.908;2022-09-20T23:57:44;10.00;99.90
